createdAt,value
2022-10-23T00:00:58.281Z,2.55
2022-10-23T00:03:24.773Z,2.20
2022-10-23T00:05:51.227Z,2.75
2022-10-23T00:08:17.709Z,2.30
2022-10-23T00:10:44.653Z,2.15
2022-10-23T00:13:11.072Z,1.90
2022-10-23T00:15:37.831Z,2.38
2022-10-23T00:18:04.762Z,1.88
2022-10-23T00:20:31.215Z,2.10
2022-10-23T00:22:57.679Z,2.00
2022-10-23T00:25:24.128Z,2.45
2022-10-23T00:27:50.548Z,2.03
2022-10-23T00:30:17.034Z,1.77
2022-10-23T00:32:43.465Z,2.00
2022-10-23T00:35:09.910Z,2.10
2022-10-23T00:37:36.332Z,1.95
2022-10-23T00:40:04.610Z,2.20
2022-10-23T00:42:31.068Z,1.88
2022-10-23T00:45:19.002Z,2.13
2022-10-23T00:47:47.273Z,1.77
2022-10-23T00:50:14.031Z,1.92
2022-10-23T00:52:45.139Z,2.20
2022-10-23T00:55:11.925Z,2.00
2022-10-23T00:57:42.217Z,3.50
2022-10-23T01:00:09.580Z,1.70
2022-10-23T01:02:36.143Z,2.17
2022-10-23T01:05:02.683Z,2.30
2022-10-23T01:07:32.055Z,2.10
2022-10-23T01:10:17.535Z,1.98
2022-10-23T01:12:55.759Z,2.58
2022-10-23T01:15:31.077Z,2.42
2022-10-23T01:18:05.720Z,2.70
2022-10-23T01:20:38.275Z,1.95
2022-10-23T01:23:35.138Z,2.03
2022-10-23T01:26:56.916Z,1.90
2022-10-23T01:29:45.442Z,2.22
2022-10-23T01:32:39.614Z,2.30
2022-10-23T01:35:12.263Z,2.10
2022-10-23T01:37:53.837Z,2.30
2022-10-23T01:40:31.075Z,2.75
2022-10-23T01:43:04.539Z,2.38
2022-10-23T01:45:42.584Z,1.95
2022-10-23T01:48:13.545Z,1.95
2022-10-23T01:50:42.782Z,2.70
2022-10-23T01:53:09.779Z,2.10
2022-10-23T01:58:08.597Z,2.10
2022-10-23T02:00:39.570Z,2.00
2022-10-23T02:03:07.898Z,1.90
2022-10-23T02:05:38.156Z,2.22
2022-10-23T02:08:05.980Z,2.33
2022-10-23T02:10:56.036Z,2.30
2022-10-23T02:13:25.463Z,2.22
2022-10-23T02:16:03.654Z,2.08
2022-10-23T02:18:46.379Z,2.05
2022-10-23T02:21:29.658Z,2.20
2022-10-23T02:24:11.756Z,1.92
2022-10-23T02:26:45.857Z,2.00
2022-10-23T02:29:21.370Z,1.92
2022-10-23T02:31:47.838Z,2.15
2022-10-23T02:34:14.376Z,2.00
2022-10-23T02:36:41.326Z,2.05
2022-10-23T02:39:07.769Z,2.50
2022-10-23T02:42:01.450Z,1.80
2022-10-23T02:44:37.428Z,2.30
2022-10-23T02:47:35.162Z,1.85
2022-10-23T02:50:16.154Z,2.50
2022-10-23T02:52:57.895Z,2.08
2022-10-23T02:55:48.293Z,2.40
2022-10-23T02:58:30.906Z,2.22
2022-10-23T03:01:06.220Z,2.47
2022-10-23T03:03:38.362Z,2.10
2022-10-23T03:06:05.077Z,2.42
2022-10-23T03:08:41.867Z,2.35
2022-10-23T03:11:08.311Z,2.28
2022-10-23T03:13:34.754Z,2.58
2022-10-23T03:16:01.374Z,2.33
2022-10-23T03:18:27.829Z,2.40
2022-10-23T03:20:54.297Z,2.20
2022-10-23T03:23:20.685Z,2.13
2022-10-23T03:25:47.129Z,2.00
2022-10-23T03:28:13.611Z,2.15
2022-10-23T03:30:40.126Z,2.00
2022-10-23T03:33:06.601Z,2.17
2022-10-23T03:35:33.079Z,2.05
2022-10-23T03:37:59.518Z,2.13
2022-10-23T03:40:25.973Z,2.15
2022-10-23T03:42:52.537Z,2.03
2022-10-23T03:45:19.368Z,2.40
2022-10-23T03:47:45.956Z,2.05
2022-10-23T03:50:15.584Z,2.10
2022-10-23T03:52:42.672Z,2.30
2022-10-23T03:55:29.829Z,2.33
2022-10-23T03:57:56.326Z,2.50
2022-10-23T04:00:22.837Z,2.55
2022-10-23T04:02:49.492Z,3.38
2022-10-23T04:05:16.220Z,3.15
2022-10-23T04:07:42.770Z,2.80
2022-10-23T04:10:09.865Z,2.65
2022-10-23T04:12:36.441Z,2.60
2022-10-23T04:15:03.264Z,2.45
2022-10-23T04:17:29.934Z,2.50
2022-10-23T04:19:56.526Z,2.63
2022-10-23T04:22:25.955Z,2.22
2022-10-23T04:24:54.156Z,2.25
2022-10-23T04:27:20.579Z,2.33
2022-10-23T04:29:47.073Z,2.00
2022-10-23T04:32:13.503Z,2.13
2022-10-23T04:34:39.921Z,2.00
2022-10-23T04:37:06.391Z,1.85
2022-10-23T04:39:32.822Z,1.60
2022-10-23T04:41:59.237Z,1.85
2022-10-23T04:44:25.644Z,1.80
2022-10-23T04:46:52.103Z,1.77
2022-10-23T04:49:18.521Z,2.10
2022-10-23T04:51:44.960Z,1.90
2022-10-23T04:54:11.436Z,2.10
2022-10-23T04:56:38.016Z,2.00
2022-10-23T05:02:26.629Z,1.90
2022-10-23T05:04:53.317Z,1.80
2022-10-23T05:09:46.105Z,1.73
2022-10-23T05:12:12.554Z,1.73
2022-10-23T05:14:39.142Z,1.92
2022-10-23T05:17:29.265Z,1.77
2022-10-23T05:19:57.735Z,1.98
2022-10-23T05:24:54.647Z,1.67
2022-10-23T05:27:21.184Z,1.80
2022-10-23T05:29:47.707Z,1.60
2022-10-23T05:32:15.972Z,1.77
2022-10-23T05:34:43.044Z,1.83
2022-10-23T05:37:12.787Z,1.95
2022-10-23T05:39:39.376Z,2.00
2022-10-23T05:42:05.868Z,1.50
2022-10-23T05:44:32.314Z,1.70
2022-10-23T05:46:58.832Z,2.10
2022-10-23T05:49:26.051Z,1.75
2022-10-23T05:51:52.927Z,1.90
2022-10-23T05:54:19.395Z,2.05
2022-10-23T05:56:45.853Z,1.50
2022-10-23T05:59:12.315Z,1.80
2022-10-23T06:01:38.959Z,2.10
2022-10-23T06:04:05.952Z,2.05
2022-10-23T06:06:32.438Z,1.98
2022-10-23T06:08:58.991Z,1.75
2022-10-23T06:11:25.520Z,1.80
2022-10-23T06:13:52.175Z,1.50
2022-10-23T06:16:21.517Z,1.55
2022-10-23T06:18:48.539Z,1.50
2022-10-23T06:21:15.786Z,1.85
2022-10-23T06:23:44.285Z,1.40
2022-10-23T06:26:13.743Z,1.70
2022-10-23T06:28:40.725Z,1.70
2022-10-23T06:31:09.198Z,1.88
2022-10-23T06:33:35.773Z,1.80
2022-10-23T06:36:03.692Z,2.00
2022-10-23T06:38:34.558Z,1.70
2022-10-23T06:41:01.037Z,1.90
2022-10-23T06:43:27.493Z,1.58
2022-10-23T06:45:53.985Z,1.88
2022-10-23T06:48:20.457Z,1.60
2022-10-23T06:50:46.888Z,1.70
2022-10-23T06:53:13.457Z,1.60
2022-10-23T06:55:40.213Z,1.30
2022-10-23T06:58:10.645Z,1.33
2022-10-23T07:00:40.199Z,1.70
2022-10-23T07:03:09.022Z,1.45
2022-10-23T07:05:35.526Z,1.13
2022-10-23T07:08:04.706Z,1.30
2022-10-23T07:10:31.164Z,1.60
2022-10-23T07:13:00.748Z,1.45
2022-10-23T07:15:28.206Z,1.30
2022-10-23T07:17:55.297Z,1.25
2022-10-23T07:20:21.747Z,1.30
2022-10-23T07:22:55.967Z,1.20
2022-10-23T07:25:23.736Z,1.17
2022-10-23T07:27:50.589Z,1.48
2022-10-23T07:30:17.373Z,1.20
2022-10-23T07:32:44.649Z,1.40
2022-10-23T07:37:44.591Z,1.48
2022-10-23T07:40:11.743Z,1.60
2022-10-23T07:42:38.899Z,1.58
2022-10-23T07:45:07.426Z,2.03
2022-10-23T07:47:34.117Z,1.50
2022-10-23T07:50:00.968Z,1.80
2022-10-23T07:52:30.838Z,1.42
2022-10-23T07:54:59.956Z,1.75
2022-10-23T07:57:26.385Z,1.30
2022-10-23T07:59:52.884Z,1.55
2022-10-23T08:02:20.724Z,1.27
2022-10-23T08:04:49.479Z,1.30
2022-10-23T08:07:15.950Z,1.35
2022-10-23T08:09:42.369Z,1.33
2022-10-23T08:12:09.647Z,1.45
2022-10-23T08:14:36.051Z,1.30
2022-10-23T08:17:03.217Z,1.40
2022-10-23T08:19:29.797Z,1.23
2022-10-23T08:21:57.259Z,1.40
2022-10-23T08:24:23.848Z,1.23
2022-10-23T08:26:50.531Z,1.30
2022-10-23T08:29:17.259Z,1.40
2022-10-23T08:31:43.866Z,1.25
2022-10-23T08:34:10.364Z,1.45
2022-10-23T08:36:39.160Z,1.42
2022-10-23T08:39:06.684Z,1.38
2022-10-23T08:41:38.557Z,1.30
2022-10-23T08:44:28.753Z,1.40
2022-10-23T08:47:10.541Z,1.42
2022-10-23T08:49:46.163Z,1.40
2022-10-23T08:52:23.488Z,1.30
2022-10-23T08:55:02.614Z,1.40
2022-10-23T08:57:40.032Z,1.23
2022-10-23T09:00:14.549Z,1.35
2022-10-23T09:02:50.384Z,1.23
2022-10-23T09:05:25.012Z,1.48
2022-10-23T09:08:34.073Z,1.30
2022-10-23T09:11:02.463Z,1.42
2022-10-23T09:13:39.057Z,1.35
2022-10-23T09:16:20.511Z,1.38
2022-10-23T09:18:48.910Z,1.20
2022-10-23T09:21:15.762Z,1.33
2022-10-23T09:23:42.225Z,1.17
2022-10-23T09:26:16.880Z,1.38
2022-10-23T09:29:02.348Z,1.38
2022-10-23T09:31:28.763Z,1.20
2022-10-23T09:34:01.503Z,1.42
2022-10-23T09:36:29.476Z,1.08
2022-10-23T09:41:37.030Z,1.30
2022-10-23T09:44:20.776Z,1.30
2022-10-23T09:46:53.904Z,1.48
2022-10-23T09:49:26.240Z,1.30
2022-10-23T09:51:55.406Z,1.30
2022-10-23T09:54:24.136Z,1.20
2022-10-23T09:56:53.696Z,1.38
2022-10-23T09:59:31.128Z,1.30
2022-10-23T10:02:00.254Z,1.50
2022-10-23T10:04:41.124Z,1.05
2022-10-23T10:07:53.595Z,1.30
2022-10-23T10:10:20.124Z,1.17
2022-10-23T10:13:01.730Z,1.20
2022-10-23T10:15:40.266Z,1.60
2022-10-23T10:18:28.558Z,1.20
2022-10-23T10:21:05.437Z,1.13
2022-10-23T10:23:47.044Z,1.23
2022-10-23T10:26:34.707Z,1.30
2022-10-23T10:29:13.231Z,1.30
2022-10-23T10:31:53.838Z,1.02
2022-10-23T10:34:41.412Z,1.30
2022-10-23T10:37:34.882Z,1.50
2022-10-23T10:40:23.432Z,1.20
2022-10-23T10:43:10.997Z,1.10
2022-10-23T10:46:07.070Z,1.20
2022-10-23T10:48:45.176Z,1.10
2022-10-23T10:51:22.329Z,1.20
2022-10-23T10:53:53.756Z,1.25
2022-10-23T10:56:25.628Z,0.98
2022-10-23T10:59:24.388Z,1.17
2022-10-23T11:02:02.146Z,1.02
2022-10-23T11:04:45.597Z,0.98
2022-10-23T11:07:18.817Z,1.10
2022-10-23T11:09:46.266Z,1.08
2022-10-23T11:12:23.043Z,1.05
2022-10-23T11:14:50.327Z,1.10
2022-10-23T11:17:38.868Z,1.20
2022-10-23T11:20:24.107Z,1.20
2022-10-23T11:22:54.985Z,1.00
2022-10-23T11:25:39.691Z,1.10
2022-10-23T11:28:29.387Z,1.00
2022-10-23T11:31:22.774Z,1.00
2022-10-23T11:34:04.438Z,1.30
2022-10-23T11:37:08.988Z,1.00
2022-10-23T11:39:39.759Z,1.10
2022-10-23T11:42:06.130Z,0.90
2022-10-23T11:44:47.156Z,1.10
2022-10-23T11:47:27.968Z,1.20
2022-10-23T11:53:12.600Z,1.20
2022-10-23T11:55:38.561Z,1.10
2022-10-23T11:58:04.921Z,1.08
2022-10-23T12:00:34.551Z,1.20
2022-10-23T12:03:02.008Z,1.00
2022-10-23T12:05:34.883Z,0.98
2022-10-23T12:08:04.178Z,0.90
2022-10-23T12:10:36.146Z,1.10
2022-10-23T12:13:06.421Z,0.93
2022-10-23T12:15:36.711Z,1.00
2022-10-23T12:18:17.297Z,1.33
2022-10-23T12:20:52.286Z,1.00
2022-10-23T12:23:57.045Z,1.10
2022-10-23T12:26:28.986Z,1.20
2022-10-23T12:29:16.483Z,1.00
2022-10-23T12:31:47.978Z,1.00
2022-10-23T12:34:42.788Z,1.92
2022-10-23T12:37:09.198Z,1.08
2022-10-23T12:39:38.983Z,1.30
2022-10-23T12:42:11.069Z,1.10
2022-10-23T12:44:37.518Z,1.10
2022-10-23T12:47:04.597Z,1.30
2022-10-23T12:49:33.689Z,1.40
2022-10-23T12:52:06.035Z,1.02
2022-10-23T12:54:38.278Z,1.20
2022-10-23T12:57:22.086Z,1.10
2022-10-23T12:59:49.996Z,1.10
2022-10-23T13:02:28.607Z,1.10
2022-10-23T13:04:58.411Z,1.15
2022-10-23T13:07:27.774Z,1.30
2022-10-23T13:09:55.167Z,1.10
2022-10-23T13:12:24.513Z,1.23
2022-10-23T13:15:03.232Z,1.20
2022-10-23T13:17:46.102Z,1.15
2022-10-23T13:20:22.540Z,1.13
2022-10-23T13:22:59.304Z,1.30
2022-10-23T13:25:32.838Z,1.45
2022-10-23T13:28:08.600Z,1.20
2022-10-23T13:30:40.291Z,1.27
2022-10-23T13:33:25.969Z,1.15
2022-10-23T13:36:04.132Z,1.20
2022-10-23T13:38:36.509Z,1.50
2022-10-23T13:41:05.068Z,1.30
2022-10-23T13:43:34.097Z,1.50
2022-10-23T13:46:01.144Z,1.10
2022-10-23T13:48:28.205Z,1.48
2022-10-23T13:50:58.224Z,1.35
2022-10-23T13:53:24.650Z,1.50
2022-10-23T13:55:54.927Z,1.40
2022-10-23T13:58:24.330Z,1.10
2022-10-23T14:00:51.102Z,1.20
2022-10-23T14:03:18.543Z,1.17
2022-10-23T14:05:44.970Z,1.42
2022-10-23T14:08:11.614Z,1.40
2022-10-23T14:10:38.087Z,1.35
2022-10-23T14:13:04.703Z,1.30
2022-10-23T14:15:31.127Z,1.33
2022-10-23T14:17:59.518Z,1.27
2022-10-23T14:20:27.911Z,1.10
2022-10-23T14:22:54.482Z,1.55
2022-10-23T14:25:22.260Z,1.30
2022-10-23T14:27:49.039Z,1.30
2022-10-23T14:30:15.903Z,1.50
2022-10-23T14:32:42.737Z,1.10
2022-10-23T14:35:09.669Z,1.08
2022-10-23T14:37:36.204Z,1.17
2022-10-23T14:40:02.751Z,1.20
2022-10-23T14:42:34.086Z,1.40
2022-10-23T14:45:02.457Z,1.65
2022-10-23T14:47:28.964Z,1.30
2022-10-23T14:49:56.176Z,1.15
2022-10-23T14:52:23.490Z,1.40
2022-10-23T14:54:53.505Z,1.30
2022-10-23T14:57:22.237Z,1.52
2022-10-23T14:59:49.504Z,1.60
2022-10-23T15:02:16.902Z,1.30
2022-10-23T15:04:43.515Z,1.40
2022-10-23T15:07:10.040Z,1.30
2022-10-23T15:09:37.413Z,1.42
2022-10-23T15:12:04.666Z,1.70
2022-10-23T15:14:31.218Z,1.30
2022-10-23T15:16:57.690Z,1.42
2022-10-23T15:19:24.309Z,1.50
2022-10-23T15:21:51.480Z,1.70
2022-10-23T15:24:18.568Z,1.60
2022-10-23T15:26:45.313Z,1.70
2022-10-23T15:29:12.824Z,1.52
2022-10-23T15:31:40.829Z,1.75
2022-10-23T15:34:18.854Z,2.13
2022-10-23T15:36:47.065Z,1.88
2022-10-23T15:39:16.090Z,1.70
2022-10-23T15:41:43.242Z,2.33
2022-10-23T15:44:14.102Z,2.90
2022-10-23T15:46:40.710Z,1.98
2022-10-23T15:49:08.515Z,2.17
2022-10-23T15:51:36.858Z,1.90
2022-10-23T15:54:05.622Z,2.05
2022-10-23T15:56:32.383Z,2.00
2022-10-23T15:58:59.067Z,2.20
2022-10-23T16:01:25.653Z,2.33
2022-10-23T16:03:52.456Z,2.10
2022-10-23T16:06:20.471Z,2.60
2022-10-23T16:08:47.128Z,2.47
2022-10-23T16:11:18.704Z,2.60
2022-10-23T16:13:45.598Z,2.63
2022-10-23T16:16:13.331Z,2.38
2022-10-23T16:18:39.931Z,2.38
2022-10-23T16:21:07.324Z,2.67
2022-10-23T16:23:34.580Z,3.00
2022-10-23T16:26:05.588Z,2.53
2022-10-23T16:28:32.114Z,2.55
2022-10-23T16:30:59.073Z,2.80
2022-10-23T16:33:25.695Z,2.70
2022-10-23T16:35:52.402Z,2.70
2022-10-23T16:38:19.255Z,2.63
2022-10-23T16:40:51.232Z,2.83
2022-10-23T16:43:17.774Z,3.10
2022-10-23T16:45:44.348Z,2.78
2022-10-23T16:48:11.118Z,2.80
2022-10-23T16:50:41.828Z,2.40
2022-10-23T16:53:08.607Z,2.80
2022-10-23T16:55:35.199Z,2.15
2022-10-23T16:58:01.851Z,3.00
2022-10-23T17:00:34.841Z,2.75
2022-10-23T17:03:05.042Z,2.70
2022-10-23T17:05:35.266Z,2.17
2022-10-23T17:08:02.012Z,2.47
2022-10-23T17:10:31.161Z,2.70
2022-10-23T17:12:57.589Z,2.83
2022-10-23T17:15:23.996Z,2.40
2022-10-23T17:17:50.585Z,3.28
2022-10-23T17:20:17.118Z,2.90
2022-10-23T17:22:43.535Z,2.72
2022-10-23T17:25:10.314Z,2.70
2022-10-23T17:27:36.774Z,2.90
2022-10-23T17:30:03.872Z,2.53
2022-10-23T17:32:30.424Z,3.00
2022-10-23T17:34:56.902Z,2.92
2022-10-23T17:37:23.371Z,3.08
2022-10-23T17:39:49.807Z,2.42
2022-10-23T17:42:16.258Z,2.63
2022-10-23T17:44:42.789Z,2.90
2022-10-23T17:47:09.229Z,3.10
2022-10-23T17:49:35.690Z,2.97
2022-10-23T17:52:02.193Z,3.03
2022-10-23T17:54:29.067Z,3.65
2022-10-23T17:56:55.697Z,3.10
2022-10-23T17:59:22.334Z,3.67
2022-10-23T18:01:49.559Z,3.08
2022-10-23T18:04:18.300Z,3.10
2022-10-23T18:06:48.357Z,3.30
2022-10-23T18:09:15.719Z,3.38
2022-10-23T18:11:46.863Z,3.22
2022-10-23T18:14:15.527Z,2.85
2022-10-23T18:16:42.002Z,3.10
2022-10-23T18:19:08.679Z,2.63
2022-10-23T18:21:35.904Z,2.88
2022-10-23T18:24:03.203Z,3.13
2022-10-23T18:26:32.137Z,3.33
2022-10-23T18:28:59.333Z,3.15
2022-10-23T18:31:29.659Z,3.03
2022-10-23T18:33:58.410Z,3.17
2022-10-23T18:36:27.346Z,3.40
2022-10-23T18:41:25.831Z,2.92
2022-10-23T18:43:54.082Z,3.40
2022-10-23T18:48:47.854Z,3.33
2022-10-23T18:51:20.383Z,3.30
2022-10-23T18:53:47.643Z,3.15
2022-10-23T18:56:23.661Z,3.25
2022-10-23T18:58:51.171Z,3.50
2022-10-23T19:01:19.351Z,3.67
2022-10-23T19:06:13.396Z,3.17
2022-10-23T19:08:42.277Z,3.60
2022-10-23T19:11:10.417Z,3.35
2022-10-23T19:13:39.486Z,3.50
2022-10-23T19:16:12.732Z,3.85
2022-10-23T19:18:42.975Z,3.58
2022-10-23T19:21:09.664Z,3.80
2022-10-23T19:23:37.995Z,3.67
2022-10-23T19:26:08.930Z,4.00
2022-10-23T19:28:42.690Z,3.72
2022-10-23T19:31:10.448Z,3.47
2022-10-23T19:33:38.471Z,3.83
2022-10-23T19:36:11.215Z,4.10
2022-10-23T19:38:41.458Z,3.78
2022-10-23T19:41:08.906Z,3.22
2022-10-23T19:43:37.631Z,3.50
2022-10-23T19:46:09.329Z,3.60
2022-10-23T19:48:42.271Z,3.42
2022-10-23T19:51:09.451Z,3.75
2022-10-23T19:53:36.353Z,3.17
2022-10-23T19:56:06.005Z,3.20
2022-10-23T19:58:32.862Z,3.55
2022-10-23T20:01:06.405Z,3.42
2022-10-23T20:03:33.048Z,3.40
2022-10-23T20:05:59.563Z,3.47
2022-10-23T20:08:25.990Z,3.22
2022-10-23T20:10:52.528Z,3.40
2022-10-23T20:13:20.429Z,2.75
2022-10-23T20:15:47.424Z,3.40
2022-10-23T20:18:13.902Z,3.38
2022-10-23T20:20:41.615Z,3.30
2022-10-23T20:23:08.337Z,3.63
2022-10-23T20:25:34.974Z,3.85
2022-10-23T20:28:01.488Z,3.28
2022-10-23T20:30:28.143Z,3.97
2022-10-23T20:32:54.562Z,3.42
2022-10-23T20:35:21.088Z,3.10
2022-10-23T20:37:47.488Z,3.35
2022-10-23T20:40:13.877Z,3.22
2022-10-23T20:42:40.311Z,3.90
2022-10-23T20:45:07.177Z,3.10
2022-10-23T20:47:33.609Z,3.05
2022-10-23T20:50:00.020Z,2.95
2022-10-23T20:52:29.388Z,3.17
2022-10-23T20:54:55.907Z,3.00
2022-10-23T20:57:22.324Z,2.50
2022-10-23T20:59:48.722Z,2.53
2022-10-23T21:02:15.279Z,2.47
2022-10-23T21:04:41.832Z,2.65
2022-10-23T21:07:10.333Z,2.65
2022-10-23T21:09:38.007Z,2.75
2022-10-23T21:12:06.376Z,2.63
2022-10-23T21:14:33.015Z,2.80
2022-10-23T21:16:59.464Z,2.80
2022-10-23T21:19:26.088Z,2.63
2022-10-23T21:21:52.549Z,2.88
2022-10-23T21:24:18.978Z,3.38
2022-10-23T21:26:45.570Z,6.60
2022-10-23T21:29:20.844Z,2.95
2022-10-23T21:31:55.649Z,2.97
2022-10-23T21:34:23.337Z,3.13
2022-10-23T21:39:36.174Z,3.10
2022-10-23T21:42:02.702Z,2.85
2022-10-23T21:44:29.117Z,3.00
2022-10-23T21:46:55.639Z,2.47
2022-10-23T21:49:22.142Z,2.40
2022-10-23T21:51:48.564Z,2.72
2022-10-23T21:54:15.114Z,2.97
2022-10-23T21:56:47.400Z,2.80
2022-10-23T21:59:16.750Z,2.95
2022-10-23T22:01:45.793Z,2.60
2022-10-23T22:04:14.398Z,2.58
2022-10-23T22:06:42.071Z,2.53
2022-10-23T22:09:11.660Z,2.85
2022-10-23T22:11:38.219Z,2.80
2022-10-23T22:14:04.894Z,2.25
2022-10-23T22:16:31.866Z,2.75
2022-10-23T22:18:58.319Z,2.40
2022-10-23T22:21:27.500Z,2.50
2022-10-23T22:23:55.565Z,2.50
2022-10-23T22:26:25.816Z,2.72
2022-10-23T22:28:54.552Z,2.15
2022-10-23T22:31:23.974Z,2.60
2022-10-23T22:33:51.728Z,2.08
2022-10-23T22:36:18.399Z,1.92
2022-10-23T22:38:45.224Z,2.20
2022-10-23T22:41:11.706Z,2.15
2022-10-23T22:43:38.390Z,2.53
2022-10-23T22:46:13.830Z,2.33
2022-10-23T22:48:41.271Z,2.08
2022-10-23T22:51:10.850Z,2.20
2022-10-23T22:53:37.538Z,2.25
2022-10-23T22:56:09.357Z,2.22
2022-10-23T22:58:36.633Z,2.25
2022-10-23T23:01:09.120Z,2.17
2022-10-23T23:03:37.055Z,2.10
2022-10-23T23:06:05.518Z,2.05
2022-10-23T23:08:32.650Z,2.03
2022-10-23T23:10:59.599Z,2.15
2022-10-23T23:13:26.337Z,2.10
2022-10-23T23:15:52.958Z,1.75
2022-10-23T23:18:19.560Z,1.88
2022-10-23T23:20:47.055Z,1.70
2022-10-23T23:23:14.166Z,1.55
2022-10-23T23:25:45.797Z,1.45
2022-10-23T23:28:14.304Z,1.60
2022-10-23T23:30:41.392Z,1.63
2022-10-23T23:33:08.953Z,1.77
2022-10-23T23:35:43.252Z,1.70
2022-10-23T23:38:11.376Z,1.63
2022-10-23T23:40:38.812Z,1.23
2022-10-23T23:43:05.520Z,1.20
2022-10-23T23:45:32.147Z,1.40
2022-10-23T23:47:58.921Z,1.40
2022-10-23T23:50:26.178Z,1.70
2022-10-23T23:52:52.561Z,1.20
2022-10-23T23:55:19.026Z,1.20
2022-10-23T23:57:45.746Z,1.10
